Time;durP1;ratioP1;P1;durP2;ratioP2;P2;SDS_P1;SDS_P2;PMS_P1;PMS_P2;Temp;Humidity;BMP_temperature;BMP_pressure;BME280_temperature;BME280_humidity;BME280_pressure;Samples;Min_cycle;Max_cycle;Signal;HPM_P1;HPM_P2
2023/07/15 00:01:48;;;;;;;5.15;4.13;;;19.70;99.90;;;;;;4975357;28;20043;-91
2023/07/15 00:04:26;;;;;;;5.93;4.15;;;20.20;99.90;;;;;;5030567;28;20544;-92
2023/07/15 00:07:05;;;;;;;5.68;4.25;;;20.30;99.90;;;;;;5036444;28;20057;-92
2023/07/15 00:09:43;;;;;;;6.13;4.30;;;20.20;99.90;;;;;;4961452;28;20043;-92
2023/07/15 00:12:10;;;;;;;5.38;3.97;;;20.30;99.90;;;;;;4959891;28;20129;-92
2023/07/15 00:14:39;;;;;;;6.40;3.90;;;20.30;99.90;;;;;;4975142;28;20038;-91
2023/07/15 00:17:13;;;;;;;5.80;4.22;;;20.40;99.90;;;;;;4957597;28;20514;-93
2023/07/15 00:19:48;;;;;;;5.53;3.92;;;20.30;99.90;;;;;;4981972;28;20130;-92
2023/07/15 00:22:17;;;;;;;5.28;4.18;;;20.30;99.90;;;;;;4976462;28;20061;-91
2023/07/15 00:25:15;;;;;;;5.53;4.32;;;20.30;99.90;;;;;;4988738;28;20088;-93
2023/07/15 00:27:54;;;;;;;4.88;4.00;;;20.40;99.90;;;;;;4961001;28;20054;-92
2023/07/15 00:30:33;;;;;;;5.40;3.53;;;20.00;99.90;;;;;;5077415;28;20102;-91
2023/07/15 00:33:19;;;;;;;6.43;3.88;;;20.40;99.90;;;;;;5046617;28;20392;-91
2023/07/15 00:36:08;;;;;;;4.65;3.50;;;20.40;99.90;;;;;;4966017;28;20065;-92
2023/07/15 00:39:16;;;;;;;4.95;3.75;;;20.40;99.90;;;;;;4970506;28;20082;-92
2023/07/15 00:42:11;;;;;;;4.50;2.95;;;20.40;99.90;;;;;;4977810;28;20375;-91
2023/07/15 00:48:30;;;;;;;4.18;3.53;;;20.70;99.90;;;;;;4958048;28;20252;-92
2023/07/15 00:51:17;;;;;;;5.82;3.58;;;20.50;99.90;;;;;;4983306;28;20088;-91
2023/07/15 00:57:46;;;;;;;8.60;3.63;;;20.40;99.90;;;;;;4987650;28;20034;-92
2023/07/15 01:03:44;;;;;;;5.55;4.00;;;20.30;99.90;;;;;;4953177;28;20129;-93
2023/07/15 01:06:49;;;;;;;5.32;3.20;;;20.20;99.90;;;;;;5043183;28;20053;-93
2023/07/15 01:09:37;;;;;;;5.60;4.20;;;20.30;99.90;;;;;;4972471;28;20042;-92
2023/07/15 01:12:17;;;;;;;4.28;3.63;;;20.20;99.90;;;;;;5073501;28;20043;-92
2023/07/15 01:15:00;;;;;;;7.93;3.97;;;20.70;99.90;;;;;;4974506;28;20042;-92
2023/07/15 01:17:49;;;;;;;8.18;3.97;;;20.30;99.90;;;;;;5049103;28;20483;-92
2023/07/15 01:20:28;;;;;;;4.97;3.60;;;20.40;99.90;;;;;;4958186;28;20096;-93
2023/07/15 01:23:05;;;;;;;5.70;3.20;;;20.50;99.90;;;;;;5008236;28;20050;-91
2023/07/15 01:28:27;;;;;;;8.10;3.97;;;20.50;99.90;;;;;;4942422;28;20082;-92
2023/07/15 01:30:58;;;;;;;5.80;3.90;;;20.50;99.90;;;;;;5061514;28;20177;-92
2023/07/15 01:33:36;;;;;;;4.88;3.42;;;20.60;99.90;;;;;;5071141;28;20042;-93
2023/07/15 01:36:13;;;;;;;7.90;3.83;;;20.60;99.90;;;;;;4969563;28;20118;-92
2023/07/15 01:38:45;;;;;;;5.88;3.35;;;20.70;99.90;;;;;;4971328;28;20038;-93
2023/07/15 01:41:19;;;;;;;5.25;3.42;;;20.70;99.90;;;;;;5044338;28;20038;-92
2023/07/15 01:43:48;;;;;;;4.32;3.13;;;20.10;99.90;;;;;;4962447;28;20070;-91
2023/07/15 01:46:14;;;;;;;6.35;3.67;;;20.80;99.90;;;;;;5075059;28;20054;-92
2023/07/15 01:48:48;;;;;;;4.35;3.45;;;20.80;99.90;;;;;;4980114;28;20043;-93
2023/07/15 01:51:13;;;;;;;3.85;3.45;;;20.80;99.90;;;;;;4972842;28;20041;-93
2023/07/15 01:53:47;;;;;;;4.00;3.20;;;20.80;99.90;;;;;;4960966;28;20121;-92
2023/07/15 01:56:25;;;;;;;5.43;3.25;;;21.50;99.90;;;;;;4942719;28;20112;-92
2023/07/15 01:59:01;;;;;;;5.10;3.10;;;20.90;99.90;;;;;;5047292;28;20088;-93
2023/07/15 02:01:39;;;;;;;4.65;3.58;;;20.90;99.90;;;;;;4960627;28;20396;-93
2023/07/15 02:04:04;;;;;;;4.82;3.03;;;21.00;99.90;;;;;;4957668;28;20205;-91
2023/07/15 02:06:36;;;;;;;4.93;2.70;;;21.00;99.90;;;;;;5057921;28;20138;-91
2023/07/15 02:09:09;;;;;;;4.15;3.22;;;21.00;99.90;;;;;;4957894;28;20046;-91
2023/07/15 02:11:35;;;;;;;5.03;3.47;;;21.00;99.90;;;;;;5060523;28;20518;-91
2023/07/15 02:14:02;;;;;;;6.70;3.40;;;21.00;99.90;;;;;;4972812;28;20074;-91
2023/07/15 02:16:30;;;;;;;4.97;3.10;;;21.00;99.90;;;;;;4981905;28;20440;-92
2023/07/15 02:18:57;;;;;;;3.90;3.28;;;21.00;99.90;;;;;;4989181;28;20081;-92
2023/07/15 02:21:37;;;;;;;3.58;2.95;;;21.00;99.90;;;;;;4959409;28;20057;-92
2023/07/15 02:24:15;;;;;;;3.55;2.88;;;21.10;99.90;;;;;;4972104;28;20046;-92
2023/07/15 02:26:51;;;;;;;;;;;;;;;;;;;;;
2023/07/15 02:29:17;;;;;;;5.75;2.90;;;21.00;99.90;;;;;;5073709;28;20286;-92
2023/07/15 02:31:46;;;;;;;2.95;2.65;;;20.90;99.90;;;;;;4943649;28;20043;-92
2023/07/15 02:34:23;;;;;;;4.68;2.63;;;21.00;99.90;;;;;;4989929;28;20138;-93
2023/07/15 02:37:03;;;;;;;4.47;3.03;;;20.80;99.90;;;;;;4974192;28;20035;-92
2023/07/15 02:39:29;;;;;;;3.50;2.60;;;21.00;99.90;;;;;;5055616;28;20044;-92
2023/07/15 02:41:58;;;;;;;4.63;3.10;;;20.90;99.90;;;;;;4974472;28;20042;-92
2023/07/15 02:44:24;;;;;;;4.00;2.90;;;20.90;99.90;;;;;;5055289;28;20046;-92
2023/07/15 02:46:55;;;;;;;3.58;2.90;;;20.80;99.90;;;;;;5064649;28;20560;-91
2023/07/15 02:49:27;;;;;;;5.07;3.25;;;20.80;99.90;;;;;;5065527;28;20046;-92
2023/07/15 02:51:53;;;;;;;3.30;2.70;;;21.10;99.90;;;;;;4995814;28;20035;-93
2023/07/15 02:54:45;;;;;;;3.35;2.97;;;20.70;99.90;;;;;;4959301;28;20126;-94
2023/07/15 02:57:20;;;;;;;3.72;2.85;;;20.80;99.90;;;;;;4978126;28;20058;-94
2023/07/15 02:59:55;;;;;;;5.60;3.00;;;20.80;99.90;;;;;;4981515;28;20502;-93
2023/07/15 03:02:34;;;;;;;3.65;2.80;;;20.80;99.90;;;;;;4973851;28;20045;-92
2023/07/15 03:05:06;;;;;;;5.93;2.92;;;20.80;99.90;;;;;;4977277;28;20106;-92
2023/07/15 03:07:32;;;;;;;3.83;2.95;;;20.80;99.90;;;;;;4968165;28;20043;-94
2023/07/15 03:09:58;;;;;;;5.28;2.92;;;20.80;99.90;;;;;;4959124;28;20039;-93
2023/07/15 03:12:24;;;;;;;3.58;2.50;;;20.80;99.90;;;;;;4959007;28;20844;-91
2023/07/15 03:14:57;;;;;;;4.78;2.90;;;20.80;99.90;;;;;;4969989;28;20414;-93
2023/07/15 03:17:23;;;;;;;5.68;3.08;;;20.80;99.90;;;;;;4976993;28;20038;-92
2023/07/15 03:20:04;;;;;;;6.05;2.58;;;20.80;99.90;;;;;;4977302;28;20112;-92
2023/07/15 03:22:33;;;;;;;5.03;2.65;;;20.90;99.90;;;;;;5068902;28;20062;-91
2023/07/15 03:24:59;;;;;;;3.47;2.60;;;20.90;99.90;;;;;;4996248;28;20023;-91
2023/07/15 03:27:37;;;;;;;3.63;2.85;;;20.90;99.90;;;;;;5078968;28;20038;-92
2023/07/15 03:30:07;;;;;;;3.35;2.78;;;20.90;99.90;;;;;;4988483;28;20123;-91
2023/07/15 03:32:46;;;;;;;5.03;2.50;;;21.00;99.90;;;;;;5086792;28;20050;-90
2023/07/15 03:35:12;;;;;;;3.55;2.53;;;21.10;99.90;;;;;;4979784;28;20047;-93
2023/07/15 03:37:41;;;;;;;3.42;2.70;;;20.90;99.90;;;;;;4964188;28;20098;-91
2023/07/15 03:40:10;;;;;;;3.85;2.50;;;20.90;99.90;;;;;;5069402;28;20521;-93
2023/07/15 03:42:42;;;;;;;3.55;2.85;;;20.90;99.90;;;;;;4965302;28;20478;-93
2023/07/15 03:45:14;;;;;;;6.32;2.75;;;20.60;99.90;;;;;;5061110;28;20133;-90
2023/07/15 03:47:54;;;;;;;3.90;2.58;;;21.00;99.90;;;;;;4949346;28;20076;-91
2023/07/15 03:50:30;;;;;;;4.60;2.70;;;21.60;99.90;;;;;;4969904;28;20120;-92
2023/07/15 03:52:59;;;;;;;5.15;2.80;;;21.00;99.90;;;;;;4966713;28;20038;-91
2023/07/15 03:55:35;;;;;;;4.05;2.80;;;20.90;99.90;;;;;;5054373;28;20046;-93
2023/07/15 03:58:10;;;;;;;3.72;2.58;;;20.90;99.90;;;;;;4967206;28;20050;-92
2023/07/15 04:00:45;;;;;;;6.55;2.75;;;20.90;99.90;;;;;;5061709;28;20035;-94
2023/07/15 04:03:14;;;;;;;3.33;2.72;;;21.00;99.90;;;;;;4960910;28;20483;-92
2023/07/15 04:05:42;;;;;;;4.82;2.80;;;20.80;99.90;;;;;;5083732;28;20046;-92
2023/07/15 04:08:08;;;;;;;3.42;2.70;;;20.70;99.90;;;;;;4970551;28;20046;-92
2023/07/15 04:10:34;;;;;;;3.55;2.42;;;20.80;99.90;;;;;;5073275;28;20047;-93
2023/07/15 04:13:00;;;;;;;4.13;2.63;;;20.70;99.90;;;;;;4954694;28;20129;-92
2023/07/15 04:15:29;;;;;;;5.72;3.00;;;20.80;99.90;;;;;;5068225;28;20081;-94
2023/07/15 04:17:57;;;;;;;4.28;2.60;;;20.70;99.90;;;;;;5048156;28;20551;-93
2023/07/15 04:20:26;;;;;;;4.40;2.88;;;20.80;99.90;;;;;;4959069;28;20719;-89
2023/07/15 04:23:02;;;;;;;4.05;3.13;;;20.70;99.90;;;;;;4982050;28;20111;-91
2023/07/15 04:25:28;;;;;;;3.63;2.78;;;20.70;99.90;;;;;;4959900;28;20104;-91
2023/07/15 04:27:57;;;;;;;3.20;2.40;;;20.70;99.90;;;;;;4972206;28;20034;-91
2023/07/15 04:30:35;;;;;;;4.13;2.58;;;20.70;99.90;;;;;;4986931;28;20034;-93
2023/07/15 04:33:07;;;;;;;5.93;2.90;;;20.70;99.90;;;;;;5036016;28;20047;-91
2023/07/15 04:35:41;;;;;;;2.60;2.38;;;20.70;99.90;;;;;;4966271;28;20031;-90
2023/07/15 04:38:45;;;;;;;3.55;2.75;;;20.70;99.90;;;;;;4979619;28;20062;-89
2023/07/15 04:41:21;;;;;;;4.25;2.70;;;20.70;99.90;;;;;;4976387;28;20129;-90
2023/07/15 04:43:46;;;;;;;6.95;3.45;;;20.60;99.90;;;;;;5076195;28;20065;-90
2023/07/15 04:46:17;;;;;;;2.88;2.50;;;20.60;99.90;;;;;;5046609;28;20074;-90
2023/07/15 04:48:43;;;;;;;7.38;3.05;;;20.60;99.90;;;;;;4956774;28;20045;-91
2023/07/15 04:51:09;;;;;;;3.35;2.67;;;20.50;99.90;;;;;;4957657;28;20043;-90
2023/07/15 04:53:43;;;;;;;3.22;2.75;;;20.50;99.90;;;;;;5062965;28;20392;-91
2023/07/15 04:56:12;;;;;;;3.28;2.60;;;20.60;99.90;;;;;;4969620;28;20125;-92
2023/07/15 04:58:44;;;;;;;4.05;2.40;;;20.60;99.90;;;;;;4963790;28;20150;-91
2023/07/15 05:01:22;;;;;;;3.33;2.58;;;20.60;99.90;;;;;;4960160;28;20051;-91
2023/07/15 05:03:54;;;;;;;4.00;2.65;;;20.40;99.90;;;;;;5061142;28;20046;-92
2023/07/15 05:06:33;;;;;;;3.22;2.53;;;21.00;99.90;;;;;;4966269;28;20050;-93
2023/07/15 05:09:00;;;;;;;3.00;2.70;;;21.00;99.90;;;;;;4962534;28;20034;-91
2023/07/15 05:11:26;;;;;;;5.38;2.97;;;21.00;99.90;;;;;;4957723;28;20446;-91
2023/07/15 05:13:53;;;;;;;4.10;2.85;;;21.10;99.90;;;;;;4968681;28;20410;-92
2023/07/15 05:16:20;;;;;;;3.25;2.80;;;21.00;99.90;;;;;;4958109;28;20038;-90
2023/07/15 05:19:25;;;;;;;5.78;2.75;;;21.10;99.90;;;;;;4969815;28;20046;-94
2023/07/15 05:21:57;;;;;;;4.35;2.92;;;21.10;99.90;;;;;;5079666;28;20122;-92
2023/07/15 05:24:28;;;;;;;5.90;2.92;;;20.70;99.90;;;;;;4961599;28;20046;-91
2023/07/15 05:27:08;;;;;;;3.42;2.67;;;21.20;99.90;;;;;;4983974;28;20038;-91
2023/07/15 05:29:37;;;;;;;4.53;2.92;;;21.20;99.90;;;;;;4961943;28;20034;-91
2023/07/15 05:32:04;;;;;;;4.80;2.55;;;21.20;99.90;;;;;;4981678;28;20078;-90
2023/07/15 05:35:02;;;;;;;4.68;2.63;;;21.20;99.90;;;;;;4975365;28;20047;-91
2023/07/15 05:37:50;;;;;;;;;;;;;;;;;;;;;
2023/07/15 05:40:19;;;;;;;4.45;2.55;;;21.30;99.90;;;;;;5081043;28;20044;-92
2023/07/15 05:42:48;;;;;;;4.18;2.40;;;21.30;99.90;;;;;;5014924;28;20054;-92
2023/07/15 05:45:14;;;;;;;3.63;2.50;;;21.40;99.90;;;;;;4978797;28;20728;-91
2023/07/15 05:47:40;;;;;;;4.50;2.58;;;21.20;99.90;;;;;;4961086;28;20076;-91
2023/07/15 05:50:08;;;;;;;4.82;2.90;;;21.50;99.90;;;;;;4992053;28;20048;-93
2023/07/15 05:52:45;;;;;;;5.97;3.00;;;21.50;99.90;;;;;;4970615;28;20051;-91
2023/07/15 05:55:15;;;;;;;3.42;2.65;;;21.50;99.90;;;;;;4982778;28;20035;-92
2023/07/15 05:57:44;;;;;;;6.15;3.17;;;21.50;99.90;;;;;;4956958;28;20074;-91
2023/07/15 06:00:19;;;;;;;3.80;2.90;;;21.60;99.90;;;;;;5072128;28;20057;-93
2023/07/15 06:02:58;;;;;;;;;;;;;;;;;;;;;
2023/07/15 06:05:24;;;;;;;3.17;2.70;;;21.70;99.90;;;;;;4980076;28;20417;-90
2023/07/15 06:07:52;;;;;;;4.85;2.88;;;21.50;99.90;;;;;;4958641;28;20045;-91
2023/07/15 06:10:18;;;;;;;4.40;3.10;;;21.80;99.90;;;;;;4987013;28;20476;-90
2023/07/15 06:12:44;;;;;;;6.72;3.25;;;21.70;99.90;;;;;;5007012;28;20077;-89
2023/07/15 06:15:10;;;;;;;3.35;2.55;;;21.90;99.90;;;;;;4968228;28;20034;-90
2023/07/15 06:17:36;;;;;;;6.07;2.80;;;21.90;99.90;;;;;;4958433;28;20437;-90
2023/07/15 06:20:05;;;;;;;4.25;2.55;;;21.90;99.90;;;;;;5007443;28;20035;-91
2023/07/15 06:22:31;;;;;;;8.02;2.70;;;22.00;99.90;;;;;;4992977;28;20042;-91
2023/07/15 06:24:57;;;;;;;4.45;2.90;;;22.00;99.90;;;;;;4984761;28;20046;-90
2023/07/15 06:27:23;;;;;;;3.38;2.55;;;22.10;99.90;;;;;;5019029;28;20035;-90
2023/07/15 06:29:53;;;;;;;3.80;2.75;;;22.40;99.90;;;;;;5075897;28;20047;-91
2023/07/15 06:32:18;;;;;;;4.85;2.70;;;22.60;99.90;;;;;;4989962;28;20065;-93
2023/07/15 06:34:46;;;;;;;2.75;2.40;;;22.70;99.90;;;;;;5040041;28;20389;-90
2023/07/15 06:37:13;;;;;;;8.48;2.65;;;22.80;99.90;;;;;;5055888;28;20483;-90
2023/07/15 06:39:39;;;;;;;3.30;2.40;;;22.90;99.90;;;;;;4950727;28;20125;-92
2023/07/15 06:42:05;;;;;;;3.47;2.30;;;23.20;99.90;;;;;;4948924;28;20089;-91
2023/07/15 06:44:31;;;;;;;2.88;2.30;;;23.20;99.90;;;;;;4955349;28;20469;-92
2023/07/15 06:46:57;;;;;;;3.88;2.40;;;23.30;99.90;;;;;;4983879;28;20045;-90
2023/07/15 06:49:23;;;;;;;5.40;2.58;;;23.40;99.90;;;;;;4973506;28;20046;-90
2023/07/15 06:51:51;;;;;;;7.68;3.00;;;23.60;99.90;;;;;;4970727;28;20034;-92
2023/07/15 06:54:17;;;;;;;5.18;2.70;;;23.50;99.90;;;;;;4966001;28;20514;-92
2023/07/15 06:56:52;;;;;;;4.45;2.35;;;23.50;99.90;;;;;;5015444;28;20078;-90
2023/07/15 06:59:18;;;;;;;4.40;2.38;;;23.00;99.90;;;;;;5020859;28;20058;-92
2023/07/15 07:01:44;;;;;;;4.55;2.75;;;23.50;99.90;;;;;;4961405;28;20031;-91
2023/07/15 07:04:10;;;;;;;5.00;2.45;;;23.50;99.90;;;;;;5055451;28;20062;-92
2023/07/15 07:06:37;;;;;;;4.60;2.47;;;23.50;99.90;;;;;;5080582;28;20057;-91
2023/07/15 07:09:05;;;;;;;4.45;2.33;;;23.50;99.90;;;;;;4982847;28;20045;-91
2023/07/15 07:11:38;;;;;;;5.13;2.38;;;23.70;99.90;;;;;;4971218;28;20058;-93
2023/07/15 07:14:10;;;;;;;5.95;2.28;;;23.70;99.90;;;;;;4987993;28;20082;-91
2023/07/15 07:16:36;;;;;;;3.50;2.40;;;23.80;99.90;;;;;;4958894;28;20034;-90
2023/07/15 07:19:01;;;;;;;3.42;1.88;;;23.90;99.90;;;;;;4980173;28;20046;-91
2023/07/15 07:21:27;;;;;;;3.95;2.53;;;24.10;99.90;;;;;;4974587;28;20057;-89
2023/07/15 07:23:55;;;;;;;3.50;2.25;;;24.20;99.90;;;;;;4961710;28;20038;-90
2023/07/15 07:26:21;;;;;;;4.40;2.22;;;24.30;99.90;;;;;;4975748;28;20032;-89
2023/07/15 07:28:47;;;;;;;6.53;2.38;;;24.40;99.90;;;;;;5055458;28;20039;-90
2023/07/15 07:31:15;;;;;;;3.63;2.38;;;24.50;99.90;;;;;;4955219;28;20039;-89
2023/07/15 07:33:42;;;;;;;3.58;2.42;;;24.50;99.90;;;;;;5053472;28;20121;-91
2023/07/15 07:36:08;;;;;;;8.70;2.40;;;24.50;99.90;;;;;;4971229;28;20494;-91
2023/07/15 07:38:34;;;;;;;3.65;2.25;;;24.60;99.90;;;;;;4954479;28;20042;-90
2023/07/15 07:41:20;;;;;;;3.75;2.20;;;24.50;99.90;;;;;;5056554;28;20043;-90
2023/07/15 07:43:46;;;;;;;5.00;2.15;;;24.70;99.90;;;;;;5040882;28;20121;-91
2023/07/15 07:46:13;;;;;;;3.80;2.33;;;24.60;99.90;;;;;;4959927;28;20061;-91
2023/07/15 07:48:39;;;;;;;4.03;2.20;;;24.60;99.90;;;;;;4988918;28;20050;-90
2023/07/15 07:51:05;;;;;;;3.78;2.17;;;24.70;99.90;;;;;;4958440;28;20041;-90
2023/07/15 07:53:31;;;;;;;3.63;2.05;;;24.70;99.90;;;;;;4958975;28;20049;-92
2023/07/15 07:55:57;;;;;;;2.83;2.00;;;24.80;99.90;;;;;;4974171;28;20038;-90
2023/07/15 07:58:23;;;;;;;2.22;2.03;;;24.80;99.90;;;;;;4971873;28;20055;-90
2023/07/15 08:00:49;;;;;;;3.40;1.98;;;25.00;99.90;;;;;;4971741;28;20066;-92
2023/07/15 08:03:16;;;;;;;3.60;2.13;;;25.10;99.90;;;;;;5022604;28;20042;-91
2023/07/15 08:05:47;;;;;;;2.75;2.00;;;25.10;99.90;;;;;;4986476;28;20060;-91
2023/07/15 08:08:19;;;;;;;4.35;2.40;;;25.30;99.90;;;;;;4981867;28;20113;-90
2023/07/15 08:10:44;;;;;;;1.95;1.77;;;25.40;99.90;;;;;;4940892;28;20049;-90
2023/07/15 08:13:10;;;;;;;4.63;1.95;;;25.40;99.90;;;;;;4959806;28;20038;-90
2023/07/15 08:15:37;;;;;;;2.72;1.48;;;25.50;99.90;;;;;;4977769;28;20038;-91
2023/07/15 08:18:03;;;;;;;3.08;1.80;;;25.30;99.90;;;;;;4977914;28;21106;-92
2023/07/15 08:20:37;;;;;;;2.15;1.80;;;25.30;99.90;;;;;;5001151;28;20034;-89
2023/07/15 08:23:07;;;;;;;3.50;2.17;;;25.30;99.90;;;;;;5058479;28;20044;-90
2023/07/15 08:25:32;;;;;;;2.83;2.30;;;25.30;99.90;;;;;;5024755;28;20046;-90
2023/07/15 08:27:59;;;;;;;3.47;2.10;;;25.20;99.90;;;;;;4960001;28;20466;-90
2023/07/15 08:30:25;;;;;;;2.78;2.10;;;25.10;99.90;;;;;;5057279;28;20072;-92
2023/07/15 08:32:51;;;;;;;3.47;2.15;;;25.20;99.90;;;;;;4959800;28;20077;-90
2023/07/15 08:35:17;;;;;;;2.13;1.92;;;25.00;99.90;;;;;;4960201;28;20050;-92
2023/07/15 08:37:43;;;;;;;5.90;2.35;;;25.10;99.90;;;;;;4976427;28;20042;-92
2023/07/15 08:40:13;;;;;;;4.35;2.25;;;25.10;99.90;;;;;;4956787;28;20046;-90
2023/07/15 08:42:39;;;;;;;3.50;2.05;;;25.30;99.90;;;;;;4992178;28;20166;-91
2023/07/15 08:45:06;;;;;;;3.58;2.50;;;25.50;99.90;;;;;;4975763;28;20726;-90
2023/07/15 08:47:32;;;;;;;2.78;2.08;;;25.50;99.90;;;;;;4992328;28;20510;-89
2023/07/15 08:50:03;;;;;;;3.90;2.28;;;25.80;99.90;;;;;;4979733;28;20034;-91
2023/07/15 08:52:30;;;;;;;2.63;1.90;;;25.90;99.90;;;;;;4991377;28;20133;-90
2023/07/15 08:54:56;;;;;;;3.15;2.13;;;26.10;99.90;;;;;;4975948;28;20034;-91
2023/07/15 08:57:23;;;;;;;2.47;2.05;;;26.10;99.90;;;;;;4976062;28;20126;-90
2023/07/15 08:59:54;;;;;;;1.83;1.58;;;26.10;99.90;;;;;;4973097;28;20526;-92
2023/07/15 09:02:20;;;;;;;2.70;1.50;;;26.00;99.90;;;;;;5059432;28;20121;-92
2023/07/15 09:04:46;;;;;;;1.85;1.50;;;26.10;99.90;;;;;;4975627;28;20073;-90
2023/07/15 09:07:14;;;;;;;2.75;1.30;;;26.40;99.90;;;;;;4960013;28;20042;-90
2023/07/15 09:09:40;;;;;;;2.17;1.40;;;26.20;99.90;;;;;;4960545;28;20145;-90
2023/07/15 09:12:11;;;;;;;2.28;1.42;;;26.10;99.90;;;;;;5056924;28;20549;-91
2023/07/15 09:14:45;;;;;;;1.77;1.17;;;26.00;99.90;;;;;;5056312;28;20038;-92
2023/07/15 09:17:14;;;;;;;;;;;26.10;99.90;;;;;;5057197;28;20494;-89
2023/07/15 09:19:41;;;;;;;3.30;1.15;;;26.20;99.90;;;;;;5087682;28;20374;-91
2023/07/15 09:22:08;;;;;;;1.75;1.52;;;26.20;99.90;;;;;;4981063;28;20068;-93
2023/07/15 09:24:37;;;;;;;2.40;1.58;;;26.20;99.90;;;;;;4959398;28;20042;-91
2023/07/15 09:27:04;;;;;;;1.95;1.35;;;26.50;99.90;;;;;;4959405;28;20050;-90
2023/07/15 09:29:33;;;;;;;2.95;1.60;;;26.20;99.90;;;;;;4959650;28;20048;-92
2023/07/15 09:31:59;;;;;;;2.78;1.40;;;26.20;99.90;;;;;;4962635;28;20046;-90
2023/07/15 09:34:27;;;;;;;2.47;1.58;;;26.40;99.90;;;;;;5056245;28;20043;-91
2023/07/15 09:36:54;;;;;;;2.08;1.60;;;26.00;99.90;;;;;;5039216;28;20039;-91
2023/07/15 09:39:22;;;;;;;3.13;2.00;;;26.10;99.90;;;;;;4940837;28;20049;-90
2023/07/15 09:42:07;;;;;;;2.10;1.55;;;26.30;99.90;;;;;;5060714;28;20050;-93
2023/07/15 09:44:43;;;;;;;1.92;1.70;;;26.90;99.90;;;;;;4975367;28;20046;-92
2023/07/15 09:47:09;;;;;;;3.03;1.60;;;27.60;99.90;;;;;;4974943;28;20083;-92
2023/07/15 09:49:36;;;;;;;2.67;1.92;;;28.10;99.90;;;;;;4958722;28;20043;-90
2023/07/15 09:52:04;;;;;;;3.25;1.63;;;27.80;99.90;;;;;;4984834;28;20038;-91
2023/07/15 09:54:34;;;;;;;3.20;1.65;;;28.00;99.90;;;;;;5056071;28;20049;-91
2023/07/15 09:57:05;;;;;;;2.72;1.42;;;27.90;99.90;;;;;;5055532;28;20091;-91
2023/07/15 09:59:40;;;;;;;2.10;1.70;;;28.10;99.90;;;;;;4939455;28;20141;-91
2023/07/15 10:02:33;;;;;;;2.60;1.70;;;27.80;99.90;;;;;;4970732;28;20049;-88
2023/07/15 10:05:05;;;;;;;3.10;2.08;;;28.30;99.90;;;;;;4954938;28;20115;-93
2023/07/15 10:07:32;;;;;;;3.45;1.60;;;28.60;99.90;;;;;;5055462;28;20039;-91
2023/07/15 10:10:01;;;;;;;2.83;1.90;;;28.20;99.90;;;;;;4954899;28;20120;-91
2023/07/15 10:12:29;;;;;;;3.30;1.92;;;27.80;99.90;;;;;;4958706;28;20047;-92
2023/07/15 10:14:55;;;;;;;2.42;1.83;;;28.00;99.90;;;;;;4974108;28;20062;-90
2023/07/15 10:17:21;;;;;;;3.95;1.83;;;28.50;99.90;;;;;;4975237;28;20035;-91
2023/07/15 10:19:52;;;;;;;2.42;1.83;;;28.10;99.90;;;;;;4958605;28;20068;-91
2023/07/15 10:22:20;;;;;;;2.15;1.95;;;28.40;99.90;;;;;;4974633;28;20054;-91
2023/07/15 10:24:55;;;;;;;2.83;1.90;;;28.90;99.90;;;;;;5070970;28;20074;-91
2023/07/15 10:27:21;;;;;;;2.97;2.30;;;29.10;99.90;;;;;;4974571;28;20038;-91
2023/07/15 10:30:13;;;;;;;3.00;2.20;;;28.20;99.90;;;;;;4974615;28;20081;-92
2023/07/15 10:33:08;;;;;;;3.10;2.10;;;27.70;99.90;;;;;;4973463;28;20038;-91
2023/07/15 10:35:41;;;;;;;2.28;1.75;;;28.30;99.90;;;;;;4971240;28;20034;-90
2023/07/15 10:38:24;;;;;;;4.85;2.00;;;27.80;99.90;;;;;;5045247;28;20094;-91
2023/07/15 10:40:52;;;;;;;4.15;2.00;;;28.40;99.90;;;;;;5029461;28;20385;-91
2023/07/15 10:43:34;;;;;;;2.50;1.90;;;28.50;99.90;;;;;;4974228;28;20089;-91
2023/07/15 10:46:10;;;;;;;2.95;1.80;;;28.40;99.90;;;;;;4973874;28;20042;-91
2023/07/15 10:48:37;;;;;;;4.00;1.88;;;28.80;99.90;;;;;;4959551;28;20129;-91
2023/07/15 10:51:12;;;;;;;2.72;1.95;;;29.00;99.90;;;;;;4988779;28;20096;-90
2023/07/15 10:53:38;;;;;;;2.22;1.90;;;28.90;99.90;;;;;;5000603;28;20050;-90
2023/07/15 10:56:12;;;;;;;2.05;1.55;;;29.40;99.90;;;;;;4962942;28;20095;-90
2023/07/15 10:58:40;;;;;;;3.25;1.90;;;29.50;99.90;;;;;;5072219;28;20299;-91
2023/07/15 11:01:11;;;;;;;3.22;1.70;;;29.20;99.90;;;;;;4978992;28;20047;-92
2023/07/15 11:03:41;;;;;;;2.00;1.67;;;28.60;99.90;;;;;;5065399;28;20045;-91
2023/07/15 11:06:07;;;;;;;3.15;1.80;;;28.10;99.90;;;;;;5058321;28;20069;-91
2023/07/15 11:08:34;;;;;;;1.85;1.60;;;27.80;99.90;;;;;;5056716;28;20045;-92
2023/07/15 11:11:03;;;;;;;2.70;1.77;;;27.80;99.90;;;;;;5055574;28;20046;-90
2023/07/15 11:13:29;;;;;;;2.22;1.80;;;27.60;99.90;;;;;;4977582;28;20038;-92
2023/07/15 11:15:56;;;;;;;2.33;1.90;;;27.70;99.90;;;;;;4993501;28;20437;-90
2023/07/15 11:18:26;;;;;;;3.65;1.85;;;27.70;99.90;;;;;;4993271;28;20033;-90
2023/07/15 11:20:57;;;;;;;2.40;1.90;;;28.00;99.90;;;;;;4977287;28;20094;-91
2023/07/15 11:23:23;;;;;;;3.20;1.75;;;27.90;99.90;;;;;;5059754;28;20044;-92
2023/07/15 11:25:49;;;;;;;2.72;1.90;;;27.90;99.90;;;;;;5076103;28;20666;-91
2023/07/15 11:28:17;;;;;;;2.55;1.77;;;27.70;99.90;;;;;;5069366;28;20036;-91
2023/07/15 11:30:46;;;;;;;1.55;1.45;;;27.60;99.90;;;;;;4973711;28;20054;-91
2023/07/15 11:33:12;;;;;;;1.80;1.50;;;27.50;99.90;;;;;;4961735;28;20127;-91
2023/07/15 11:35:39;;;;;;;3.22;1.75;;;27.40;99.90;;;;;;4962152;28;20088;-92
2023/07/15 11:38:14;;;;;;;2.00;1.42;;;27.50;99.90;;;;;;5037265;28;20038;-91
2023/07/15 11:40:53;;;;;;;2.10;1.73;;;27.60;99.90;;;;;;4954135;28;20039;-89
2023/07/15 11:43:22;;;;;;;2.20;1.65;;;27.70;99.90;;;;;;5044686;28;20098;-91
2023/07/15 11:45:48;;;;;;;2.38;1.65;;;27.60;99.90;;;;;;5078388;28;20075;-93
2023/07/15 11:48:45;;;;;;;2.35;1.55;;;27.70;99.90;;;;;;5062128;28;20079;-90
2023/07/15 11:51:11;;;;;;;3.17;1.65;;;28.00;99.90;;;;;;4967660;28;20055;-90
2023/07/15 11:53:41;;;;;;;2.42;1.40;;;27.60;99.90;;;;;;5061226;28;20065;-91
2023/07/15 11:56:07;;;;;;;1.38;1.25;;;27.60;99.90;;;;;;5051598;28;20043;-90
2023/07/15 11:58:36;;;;;;;1.92;1.30;;;27.30;99.90;;;;;;5058173;28;20475;-92
2023/07/15 12:01:04;;;;;;;2.38;1.63;;;27.10;99.90;;;;;;4996702;28;20103;-91
2023/07/15 12:03:30;;;;;;;2.83;1.48;;;26.90;99.90;;;;;;4976269;28;20082;-93
2023/07/15 12:05:56;;;;;;;2.00;1.60;;;26.90;99.90;;;;;;4976018;28;20062;-91
2023/07/15 12:08:22;;;;;;;2.63;1.67;;;27.00;99.90;;;;;;4976223;28;20042;-91
2023/07/15 12:11:05;;;;;;;1.90;1.60;;;27.10;99.90;;;;;;4956501;28;20081;-90
2023/07/15 12:13:31;;;;;;;2.92;1.55;;;27.20;99.90;;;;;;5070937;28;20031;-91
2023/07/15 12:15:57;;;;;;;1.48;1.38;;;27.10;99.90;;;;;;5025640;28;20053;-90
2023/07/15 12:18:23;;;;;;;2.25;1.70;;;27.10;99.90;;;;;;5023794;28;20483;-91
2023/07/15 12:20:49;;;;;;;4.38;1.60;;;26.90;99.90;;;;;;4962063;28;20602;-92
2023/07/15 12:23:15;;;;;;;1.70;1.50;;;27.10;99.90;;;;;;4959966;28;20057;-90
2023/07/15 12:25:41;;;;;;;2.15;1.40;;;27.60;99.90;;;;;;4959576;28;20561;-91
2023/07/15 12:28:07;;;;;;;1.83;1.60;;;27.80;99.90;;;;;;4975338;28;20053;-89
2023/07/15 12:30:33;;;;;;;4.45;1.70;;;27.70;99.90;;;;;;4959574;28;20038;-91
2023/07/15 12:33:01;;;;;;;1.50;1.38;;;27.70;99.90;;;;;;4976138;28;20034;-90
2023/07/15 12:35:27;;;;;;;5.32;1.70;;;28.20;99.90;;;;;;4981785;28;20031;-90
2023/07/15 12:37:55;;;;;;;3.03;1.70;;;28.10;99.90;;;;;;4965263;28;20095;-91
2023/07/15 12:40:21;;;;;;;1.60;1.45;;;28.20;99.90;;;;;;4994424;28;20126;-92
2023/07/15 12:42:50;;;;;;;1.63;1.40;;;28.10;99.90;;;;;;5065895;28;20389;-91
2023/07/15 12:45:16;;;;;;;2.00;1.50;;;28.30;99.90;;;;;;4971938;28;20276;-91
2023/07/15 12:47:42;;;;;;;2.35;1.88;;;28.40;99.90;;;;;;4975463;28;20046;-91
2023/07/15 12:50:09;;;;;;;3.42;1.77;;;28.60;99.90;;;;;;4975085;28;20402;-92
2023/07/15 12:52:35;;;;;;;2.75;1.50;;;28.60;99.90;;;;;;4991155;28;20509;-89
2023/07/15 12:55:02;;;;;;;3.30;1.70;;;28.40;99.90;;;;;;4955726;28;20073;-91
2023/07/15 12:57:28;;;;;;;2.50;1.60;;;28.80;99.90;;;;;;4950978;28;20491;-91
2023/07/15 12:59:54;;;;;;;2.58;1.75;;;28.80;99.90;;;;;;4974513;28;20054;-90
2023/07/15 13:02:20;;;;;;;2.30;1.60;;;29.00;99.90;;;;;;4966447;28;20403;-90
2023/07/15 13:04:47;;;;;;;1.48;1.30;;;28.90;99.90;;;;;;4957588;28;20046;-89
2023/07/15 13:07:13;;;;;;;2.60;1.70;;;28.60;92.60;;;;;;5057274;28;20054;-92
2023/07/15 13:09:39;;;;;;;3.65;1.80;;;28.20;99.90;;;;;;5007067;28;20058;-91
2023/07/15 13:12:05;;;;;;;3.72;1.88;;;27.80;99.90;;;;;;5022503;28;20129;-90
2023/07/15 13:14:31;;;;;;;3.50;2.08;;;27.50;99.90;;;;;;5047058;28;20410;-90
2023/07/15 13:16:57;;;;;;;3.20;2.03;;;27.30;99.90;;;;;;4974826;28;20054;-90
2023/07/15 13:19:23;;;;;;;1.98;1.55;;;27.50;99.90;;;;;;4955821;28;20050;-90
2023/07/15 13:21:50;;;;;;;3.35;1.50;;;27.60;99.90;;;;;;4964807;28;20042;-91
2023/07/15 13:24:17;;;;;;;1.67;1.48;;;28.00;99.90;;;;;;4968296;28;20046;-92